sensor_id;sensor_type;location;lat;lon;timestamp;pressure;altitude;pressure_sealevel;temperature;humidity
16190;BME280;41754;51.498;7.540;2023-05-03T00:00:13;101547.00;;;6.39;61.67
16190;BME280;41754;51.498;7.540;2023-05-03T00:02:42;101549.31;;;6.47;61.73
16190;BME280;41754;51.498;7.540;2023-05-03T00:05:11;101548.72;;;5.90;63.00
16190;BME280;41754;51.498;7.540;2023-05-03T00:07:41;101547.59;;;5.69;64.01
16190;BME280;41754;51.498;7.540;2023-05-03T00:10:10;101540.44;;;6.18;62.70
16190;BME280;41754;51.498;7.540;2023-05-03T00:12:42;101541.00;;;6.03;62.91
16190;BME280;41754;51.498;7.540;2023-05-03T00:15:10;101534.03;;;6.12;62.49
16190;BME280;41754;51.498;7.540;2023-05-03T00:17:40;101533.25;;;5.62;63.34
16190;BME280;41754;51.498;7.540;2023-05-03T00:20:08;101532.00;;;5.52;63.77
16190;BME280;41754;51.498;7.540;2023-05-03T00:22:37;101535.31;;;5.88;62.72
16190;BME280;41754;51.498;7.540;2023-05-03T00:25:07;101539.47;;;5.74;62.93
16190;BME280;41754;51.498;7.540;2023-05-03T00:27:35;101538.97;;;5.94;62.74
16190;BME280;41754;51.498;7.540;2023-05-03T00:30:04;101529.66;;;6.11;61.41
16190;BME280;41754;51.498;7.540;2023-05-03T00:32:33;101523.41;;;5.94;61.99
16190;BME280;41754;51.498;7.540;2023-05-03T00:35:02;101518.84;;;5.83;62.65
16190;BME280;41754;51.498;7.540;2023-05-03T00:37:30;101526.06;;;5.72;63.21
16190;BME280;41754;51.498;7.540;2023-05-03T00:39:58;101527.88;;;5.83;63.49
16190;BME280;41754;51.498;7.540;2023-05-03T00:42:27;101529.75;;;5.49;64.67
16190;BME280;41754;51.498;7.540;2023-05-03T00:44:54;101531.16;;;5.52;64.94
16190;BME280;41754;51.498;7.540;2023-05-03T00:47:23;101522.25;;;5.57;64.42
16190;BME280;41754;51.498;7.540;2023-05-03T00:49:51;101524.38;;;5.88;63.42
16190;BME280;41754;51.498;7.540;2023-05-03T00:52:20;101530.84;;;5.65;64.52
16190;BME280;41754;51.498;7.540;2023-05-03T00:54:48;101524.03;;;5.34;65.63
16190;BME280;41754;51.498;7.540;2023-05-03T00:57:16;101542.00;;;5.18;65.86
16190;BME280;41754;51.498;7.540;2023-05-03T00:59:45;101532.97;;;5.18;66.04
16190;BME280;41754;51.498;7.540;2023-05-03T01:02:13;101541.44;;;5.45;65.41
16190;BME280;41754;51.498;7.540;2023-05-03T01:04:41;101539.78;;;5.44;64.18
16190;BME280;41754;51.498;7.540;2023-05-03T01:07:19;101542.19;;;5.29;64.51
16190;BME280;41754;51.498;7.540;2023-05-03T01:09:58;101550.91;;;5.42;64.43
16190;BME280;41754;51.498;7.540;2023-05-03T01:12:38;101544.66;;;5.30;63.56
16190;BME280;41754;51.498;7.540;2023-05-03T01:15:19;101547.59;;;5.12;64.06
16190;BME280;41754;51.498;7.540;2023-05-03T01:17:56;101551.13;;;4.95;64.64
16190;BME280;41754;51.498;7.540;2023-05-03T01:20:28;101550.91;;;5.42;63.69
16190;BME280;41754;51.498;7.540;2023-05-03T01:23:03;101555.34;;;5.43;63.30
16190;BME280;41754;51.498;7.540;2023-05-03T01:25:33;101552.69;;;5.48;63.06
16190;BME280;41754;51.498;7.540;2023-05-03T01:28:01;101547.19;;;4.91;63.91
16190;BME280;41754;51.498;7.540;2023-05-03T01:30:30;101547.44;;;5.18;64.25
16190;BME280;41754;51.498;7.540;2023-05-03T01:33:02;101548.88;;;5.21;64.15
16190;BME280;41754;51.498;7.540;2023-05-03T01:35:35;101549.25;;;5.13;64.38
16190;BME280;41754;51.498;7.540;2023-05-03T01:38:04;101545.38;;;5.37;63.15
16190;BME280;41754;51.498;7.540;2023-05-03T01:40:37;101559.22;;;5.19;64.13
16190;BME280;41754;51.498;7.540;2023-05-03T01:43:08;101562.03;;;4.95;63.68
16190;BME280;41754;51.498;7.540;2023-05-03T01:45:39;101552.69;;;5.48;62.19
16190;BME280;41754;51.498;7.540;2023-05-03T01:48:08;101556.28;;;5.09;63.15
16190;BME280;41754;51.498;7.540;2023-05-03T01:50:37;101556.16;;;5.04;63.30
16190;BME280;41754;51.498;7.540;2023-05-03T01:53:05;101559.69;;;5.16;63.15
16190;BME280;41754;51.498;7.540;2023-05-03T01:55:33;101558.97;;;5.20;62.66
16190;BME280;41754;51.498;7.540;2023-05-03T01:58:02;101564.91;;;5.17;62.29
16190;BME280;41754;51.498;7.540;2023-05-03T02:00:31;101567.28;;;5.14;62.87
16190;BME280;41754;51.498;7.540;2023-05-03T02:02:59;101568.41;;;3.91;65.09
16190;BME280;41754;51.498;7.540;2023-05-03T02:05:27;101567.84;;;4.00;64.92
16190;BME280;41754;51.498;7.540;2023-05-03T02:07:55;101576.97;;;4.29;65.88
16190;BME280;41754;51.498;7.540;2023-05-03T02:10:23;101577.09;;;4.23;65.97
16190;BME280;41754;51.498;7.540;2023-05-03T02:12:54;101581.00;;;4.39;65.85
16190;BME280;41754;51.498;7.540;2023-05-03T02:15:23;101581.91;;;4.56;65.15
16190;BME280;41754;51.498;7.540;2023-05-03T02:17:51;101577.91;;;4.47;65.86
16190;BME280;41754;51.498;7.540;2023-05-03T02:20:20;101582.78;;;4.33;66.87
16190;BME280;41754;51.498;7.540;2023-05-03T02:22:48;101573.13;;;4.54;65.91
16190;BME280;41754;51.498;7.540;2023-05-03T02:25:15;101581.69;;;4.46;66.11
16190;BME280;41754;51.498;7.540;2023-05-03T02:27:43;101578.84;;;4.41;65.80
16190;BME280;41754;51.498;7.540;2023-05-03T02:30:12;101578.75;;;4.35;66.18
16190;BME280;41754;51.498;7.540;2023-05-03T02:32:43;101592.22;;;4.30;66.56
16190;BME280;41754;51.498;7.540;2023-05-03T02:35:11;101590.47;;;4.48;66.19
16190;BME280;41754;51.498;7.540;2023-05-03T02:37:39;101590.97;;;4.21;66.84
16190;BME280;41754;51.498;7.540;2023-05-03T02:40:11;101592.47;;;4.29;66.44
16190;BME280;41754;51.498;7.540;2023-05-03T02:42:41;101601.13;;;4.14;66.73
16190;BME280;41754;51.498;7.540;2023-05-03T02:45:10;101606.34;;;4.16;66.43
16190;BME280;41754;51.498;7.540;2023-05-03T02:47:38;101602.53;;;4.05;65.61
16190;BME280;41754;51.498;7.540;2023-05-03T02:50:08;101595.19;;;4.41;65.21
16190;BME280;41754;51.498;7.540;2023-05-03T02:52:38;101591.66;;;4.17;65.56
16190;BME280;41754;51.498;7.540;2023-05-03T02:55:06;101596.97;;;4.00;65.75
16190;BME280;41754;51.498;7.540;2023-05-03T02:57:35;101592.09;;;3.78;65.46
16190;BME280;41754;51.498;7.540;2023-05-03T03:00:07;101593.03;;;3.72;66.09
16190;BME280;41754;51.498;7.540;2023-05-03T03:02:37;101592.84;;;4.09;65.89
16190;BME280;41754;51.498;7.540;2023-05-03T03:05:05;101589.75;;;4.29;64.65
16190;BME280;41754;51.498;7.540;2023-05-03T03:07:36;101591.19;;;4.08;65.02
16190;BME280;41754;51.498;7.540;2023-05-03T03:10:06;101593.69;;;4.10;64.89
16190;BME280;41754;51.498;7.540;2023-05-03T03:12:34;101580.16;;;4.50;64.28
16190;BME280;41754;51.498;7.540;2023-05-03T03:15:06;101578.84;;;4.17;64.81
16190;BME280;41754;51.498;7.540;2023-05-03T03:17:34;101581.22;;;4.25;65.33
16190;BME280;41754;51.498;7.540;2023-05-03T03:20:08;101590.81;;;4.04;66.03
16190;BME280;41754;51.498;7.540;2023-05-03T03:22:43;101582.63;;;3.93;66.14
16190;BME280;41754;51.498;7.540;2023-05-03T03:25:12;101576.84;;;3.89;66.54
16190;BME280;41754;51.498;7.540;2023-05-03T03:27:39;101581.56;;;4.05;66.07
16190;BME280;41754;51.498;7.540;2023-05-03T03:30:08;101574.94;;;4.01;66.45
16190;BME280;41754;51.498;7.540;2023-05-03T03:32:46;101578.63;;;3.84;66.29
16190;BME280;41754;51.498;7.540;2023-05-03T03:35:22;101572.47;;;4.00;66.26
16190;BME280;41754;51.498;7.540;2023-05-03T03:37:52;101573.88;;;3.91;66.42
16190;BME280;41754;51.498;7.540;2023-05-03T03:40:21;101579.31;;;3.91;66.48
16190;BME280;41754;51.498;7.540;2023-05-03T03:42:51;101564.88;;;4.02;66.17
16190;BME280;41754;51.498;7.540;2023-05-03T03:45:19;101570.06;;;3.80;66.70
16190;BME280;41754;51.498;7.540;2023-05-03T03:47:48;101569.94;;;3.75;67.13
16190;BME280;41754;51.498;7.540;2023-05-03T03:50:20;101571.63;;;3.88;66.59
16190;BME280;41754;51.498;7.540;2023-05-03T03:52:48;101573.19;;;3.95;66.65
16190;BME280;41754;51.498;7.540;2023-05-03T03:55:18;101561.22;;;4.08;65.43
16190;BME280;41754;51.498;7.540;2023-05-03T03:57:48;101557.06;;;3.94;66.09
16190;BME280;41754;51.498;7.540;2023-05-03T04:00:17;101564.53;;;3.87;66.32
16190;BME280;41754;51.498;7.540;2023-05-03T04:02:51;101562.13;;;3.78;66.62
16190;BME280;41754;51.498;7.540;2023-05-03T04:05:19;101566.50;;;3.68;67.24
16190;BME280;41754;51.498;7.540;2023-05-03T04:07:47;101569.78;;;3.46;68.23
16190;BME280;41754;51.498;7.540;2023-05-03T04:10:17;101563.66;;;3.63;67.28
16190;BME280;41754;51.498;7.540;2023-05-03T04:12:45;101563.72;;;3.98;66.92
16190;BME280;41754;51.498;7.540;2023-05-03T04:15:14;101560.25;;;4.02;66.05
16190;BME280;41754;51.498;7.540;2023-05-03T04:17:44;101559.91;;;3.99;66.21
16190;BME280;41754;51.498;7.540;2023-05-03T04:20:13;101563.81;;;4.03;66.19
16190;BME280;41754;51.498;7.540;2023-05-03T04:22:46;101557.69;;;4.07;66.09
16190;BME280;41754;51.498;7.540;2023-05-03T04:25:18;101550.91;;;4.10;66.30
16190;BME280;41754;51.498;7.540;2023-05-03T04:27:53;101548.88;;;4.17;66.24
16190;BME280;41754;51.498;7.540;2023-05-03T04:30:23;101554.22;;;4.35;65.80
16190;BME280;41754;51.498;7.540;2023-05-03T04:32:54;101547.69;;;4.48;65.05
16190;BME280;41754;51.498;7.540;2023-05-03T04:35:25;101551.47;;;4.47;64.58
16190;BME280;41754;51.498;7.540;2023-05-03T04:37:56;101550.28;;;4.43;65.67
16190;BME280;41754;51.498;7.540;2023-05-03T04:40:27;101550.13;;;4.73;65.05
16190;BME280;41754;51.498;7.540;2023-05-03T04:43:02;101545.38;;;4.69;64.68
16190;BME280;41754;51.498;7.540;2023-05-03T04:45:33;101540.53;;;4.71;64.57
16190;BME280;41754;51.498;7.540;2023-05-03T04:48:01;101548.59;;;4.54;65.54
16190;BME280;41754;51.498;7.540;2023-05-03T04:50:31;101554.59;;;4.79;65.01
16190;BME280;41754;51.498;7.540;2023-05-03T04:52:59;101551.72;;;4.57;65.29
16190;BME280;41754;51.498;7.540;2023-05-03T04:55:31;101551.22;;;4.60;66.16
16190;BME280;41754;51.498;7.540;2023-05-03T04:58:01;101546.38;;;4.91;64.69
16190;BME280;41754;51.498;7.540;2023-05-03T05:00:29;101550.63;;;5.27;64.13
16190;BME280;41754;51.498;7.540;2023-05-03T05:03:03;101558.66;;;5.34;63.60
16190;BME280;41754;51.498;7.540;2023-05-03T05:05:32;101555.06;;;5.16;63.31
16190;BME280;41754;51.498;7.540;2023-05-03T05:08:00;101567.97;;;5.21;63.36
16190;BME280;41754;51.498;7.540;2023-05-03T05:10:39;101566.88;;;4.93;64.45
16190;BME280;41754;51.498;7.540;2023-05-03T05:13:09;101580.31;;;4.95;64.93
16190;BME280;41754;51.498;7.540;2023-05-03T05:15:37;101580.25;;;5.07;64.74
16190;BME280;41754;51.498;7.540;2023-05-03T05:18:05;101578.19;;;5.14;64.38
16190;BME280;41754;51.498;7.540;2023-05-03T05:20:36;101581.38;;;5.34;63.91
16190;BME280;41754;51.498;7.540;2023-05-03T05:23:04;101578.38;;;5.81;63.15
16190;BME280;41754;51.498;7.540;2023-05-03T05:25:33;101586.16;;;6.06;62.32
16190;BME280;41754;51.498;7.540;2023-05-03T05:28:03;101587.72;;;6.02;61.25
16190;BME280;41754;51.498;7.540;2023-05-03T05:30:31;101585.13;;;6.29;60.76
16190;BME280;41754;51.498;7.540;2023-05-03T05:33:01;101583.78;;;6.48;60.15
16190;BME280;41754;51.498;7.540;2023-05-03T05:35:29;101581.03;;;6.48;60.47
16190;BME280;41754;51.498;7.540;2023-05-03T05:37:57;101590.00;;;6.65;59.83
16190;BME280;41754;51.498;7.540;2023-05-03T05:40:26;101591.91;;;6.65;59.47
16190;BME280;41754;51.498;7.540;2023-05-03T05:42:56;101594.03;;;6.80;59.61
16190;BME280;41754;51.498;7.540;2023-05-03T05:45:26;101598.25;;;7.31;58.84
16190;BME280;41754;51.498;7.540;2023-05-03T05:47:56;101594.84;;;7.46;57.42
16190;BME280;41754;51.498;7.540;2023-05-03T05:50:24;101603.72;;;7.58;56.36
16190;BME280;41754;51.498;7.540;2023-05-03T05:52:57;101607.41;;;7.69;56.30
16190;BME280;41754;51.498;7.540;2023-05-03T05:55:28;101613.13;;;7.67;56.25
16190;BME280;41754;51.498;7.540;2023-05-03T05:57:57;101622.03;;;7.09;56.82
16190;BME280;41754;51.498;7.540;2023-05-03T06:00:34;101623.31;;;7.45;56.34
16190;BME280;41754;51.498;7.540;2023-05-03T06:03:04;101625.97;;;7.40;56.18
16190;BME280;41754;51.498;7.540;2023-05-03T06:05:32;101630.19;;;7.74;55.70
16190;BME280;41754;51.498;7.540;2023-05-03T06:08:00;101620.34;;;8.05;55.27
16190;BME280;41754;51.498;7.540;2023-05-03T06:10:28;101623.03;;;8.37;54.33
16190;BME280;41754;51.498;7.540;2023-05-03T06:12:56;101632.34;;;8.36;53.88
16190;BME280;41754;51.498;7.540;2023-05-03T06:15:27;101622.69;;;8.71;53.46
16190;BME280;41754;51.498;7.540;2023-05-03T06:17:57;101624.81;;;8.59;52.81
16190;BME280;41754;51.498;7.540;2023-05-03T06:20:25;101626.19;;;8.61;52.88
16190;BME280;41754;51.498;7.540;2023-05-03T06:22:53;101628.53;;;9.42;52.03
16190;BME280;41754;51.498;7.540;2023-05-03T06:25:21;101633.75;;;8.81;53.47
16190;BME280;41754;51.498;7.540;2023-05-03T06:27:49;101634.63;;;8.50;53.83
16190;BME280;41754;51.498;7.540;2023-05-03T06:30:20;101638.00;;;8.62;53.63
16190;BME280;41754;51.498;7.540;2023-05-03T06:32:51;101640.81;;;9.19;51.94
16190;BME280;41754;51.498;7.540;2023-05-03T06:35:21;101646.94;;;9.47;51.73
16190;BME280;41754;51.498;7.540;2023-05-03T06:37:49;101640.53;;;9.26;51.07
16190;BME280;41754;51.498;7.540;2023-05-03T06:40:17;101641.44;;;9.42;50.95
16190;BME280;41754;51.498;7.540;2023-05-03T06:42:45;101639.72;;;9.25;51.57
16190;BME280;41754;51.498;7.540;2023-05-03T06:45:19;101634.63;;;9.75;50.31
16190;BME280;41754;51.498;7.540;2023-05-03T06:47:47;101633.28;;;10.43;50.57
16190;BME280;41754;51.498;7.540;2023-05-03T06:50:16;101633.00;;;10.04;50.09
16190;BME280;41754;51.498;7.540;2023-05-03T06:53:05;101629.69;;;10.58;49.45
16190;BME280;41754;51.498;7.540;2023-05-03T06:55:33;101626.41;;;10.26;49.64
16190;BME280;41754;51.498;7.540;2023-05-03T06:58:00;101628.34;;;10.30;49.14
16190;BME280;41754;51.498;7.540;2023-05-03T07:00:28;101628.25;;;10.81;48.54
16190;BME280;41754;51.498;7.540;2023-05-03T07:02:56;101619.16;;;10.80;48.95
16190;BME280;41754;51.498;7.540;2023-05-03T07:05:24;101624.88;;;10.99;48.73
16190;BME280;41754;51.498;7.540;2023-05-03T07:07:52;101632.66;;;11.52;47.78
16190;BME280;41754;51.498;7.540;2023-05-03T07:10:22;101625.88;;;10.29;49.57
16190;BME280;41754;51.498;7.540;2023-05-03T07:12:51;101633.00;;;10.50;49.72
16190;BME280;41754;51.498;7.540;2023-05-03T07:15:18;101634.31;;;10.83;49.15
16190;BME280;41754;51.498;7.540;2023-05-03T07:17:46;101631.81;;;10.87;48.00
16190;BME280;41754;51.498;7.540;2023-05-03T07:20:14;101627.88;;;11.67;47.20
16190;BME280;41754;51.498;7.540;2023-05-03T07:22:42;101629.22;;;11.70;47.06
16190;BME280;41754;51.498;7.540;2023-05-03T07:25:11;101630.44;;;11.54;46.55
16190;BME280;41754;51.498;7.540;2023-05-03T07:27:42;101630.13;;;10.96;46.68
16190;BME280;41754;51.498;7.540;2023-05-03T07:30:10;101626.78;;;12.03;45.79
16190;BME280;41754;51.498;7.540;2023-05-03T07:32:38;101624.78;;;11.74;45.27
16190;BME280;41754;51.498;7.540;2023-05-03T07:35:07;101614.31;;;10.42;47.10
16190;BME280;41754;51.498;7.540;2023-05-03T07:37:35;101618.78;;;11.62;46.40
16190;BME280;41754;51.498;7.540;2023-05-03T07:40:05;101610.41;;;11.82;46.04
16190;BME280;41754;51.498;7.540;2023-05-03T07:42:33;101606.38;;;12.62;43.96
16190;BME280;41754;51.498;7.540;2023-05-03T07:45:03;101597.56;;;12.83;43.60
16190;BME280;41754;51.498;7.540;2023-05-03T07:47:31;101608.53;;;12.36;44.12
16190;BME280;41754;51.498;7.540;2023-05-03T07:50:04;101605.75;;;12.41;43.74
16190;BME280;41754;51.498;7.540;2023-05-03T07:52:34;101603.56;;;12.09;44.20
16190;BME280;41754;51.498;7.540;2023-05-03T07:55:03;101598.81;;;12.96;43.79
16190;BME280;41754;51.498;7.540;2023-05-03T07:57:45;101601.47;;;13.44;42.05
16190;BME280;41754;51.498;7.540;2023-05-03T08:00:18;101594.50;;;12.61;43.17
16190;BME280;41754;51.498;7.540;2023-05-03T08:02:46;101595.59;;;12.89;43.00
16190;BME280;41754;51.498;7.540;2023-05-03T08:05:14;101590.59;;;12.38;43.17
16190;BME280;41754;51.498;7.540;2023-05-03T08:07:43;101586.34;;;11.88;44.04
16190;BME280;41754;51.498;7.540;2023-05-03T08:10:12;101585.47;;;13.03;42.48
16190;BME280;41754;51.498;7.540;2023-05-03T08:12:39;101593.72;;;13.84;41.39
16190;BME280;41754;51.498;7.540;2023-05-03T08:15:08;101598.50;;;13.59;41.17
16190;BME280;41754;51.498;7.540;2023-05-03T08:17:41;101598.19;;;11.93;43.27
16190;BME280;41754;51.498;7.540;2023-05-03T08:20:09;101594.59;;;12.80;43.25
16190;BME280;41754;51.498;7.540;2023-05-03T08:22:38;101598.56;;;13.35;40.53
16190;BME280;41754;51.498;7.540;2023-05-03T08:25:07;101593.19;;;13.25;41.33
16190;BME280;41754;51.498;7.540;2023-05-03T08:27:35;101579.97;;;13.41;40.54
16190;BME280;41754;51.498;7.540;2023-05-03T08:30:06;101589.25;;;13.88;40.60
16190;BME280;41754;51.498;7.540;2023-05-03T08:32:34;101583.75;;;14.01;39.57
16190;BME280;41754;51.498;7.540;2023-05-03T08:35:04;101579.03;;;14.02;37.96
16190;BME280;41754;51.498;7.540;2023-05-03T08:37:39;101581.91;;;14.11;37.83
16190;BME280;41754;51.498;7.540;2023-05-03T08:40:08;101577.16;;;13.97;38.59
16190;BME280;41754;51.498;7.540;2023-05-03T08:42:38;101569.34;;;14.32;39.22
16190;BME280;41754;51.498;7.540;2023-05-03T08:45:09;101574.59;;;13.68;38.07
16190;BME280;41754;51.498;7.540;2023-05-03T08:47:37;101568.06;;;13.22;38.43
16190;BME280;41754;51.498;7.540;2023-05-03T08:50:09;101582.19;;;13.01;39.54
16190;BME280;41754;51.498;7.540;2023-05-03T08:52:38;101577.09;;;13.08;38.32
16190;BME280;41754;51.498;7.540;2023-05-03T08:55:08;101578.09;;;13.36;39.10
16190;BME280;41754;51.498;7.540;2023-05-03T08:57:37;101583.06;;;14.23;38.96
16190;BME280;41754;51.498;7.540;2023-05-03T09:00:06;101587.38;;;13.64;37.99
16190;BME280;41754;51.498;7.540;2023-05-03T09:02:36;101594.69;;;14.25;38.27
16190;BME280;41754;51.498;7.540;2023-05-03T09:05:31;101594.56;;;14.90;38.43
16190;BME280;41754;51.498;7.540;2023-05-03T09:08:01;101597.53;;;13.69;37.62
16190;BME280;41754;51.498;7.540;2023-05-03T09:10:30;101595.47;;;14.12;38.36
16190;BME280;41754;51.498;7.540;2023-05-03T09:12:59;101585.94;;;13.86;37.11
16190;BME280;41754;51.498;7.540;2023-05-03T09:15:28;101582.59;;;14.35;36.89
16190;BME280;41754;51.498;7.540;2023-05-03T09:18:10;101575.41;;;13.69;37.16
16190;BME280;41754;51.498;7.540;2023-05-03T09:20:40;101573.91;;;14.09;36.97
16190;BME280;41754;51.498;7.540;2023-05-03T09:23:11;101577.13;;;14.76;37.35
16190;BME280;41754;51.498;7.540;2023-05-03T09:25:40;101578.81;;;13.98;36.75
16190;BME280;41754;51.498;7.540;2023-05-03T09:28:09;101570.69;;;14.48;37.34
16190;BME280;41754;51.498;7.540;2023-05-03T09:30:37;101570.53;;;14.72;37.69
16190;BME280;41754;51.498;7.540;2023-05-03T09:33:05;101577.41;;;15.16;35.98
16190;BME280;41754;51.498;7.540;2023-05-03T09:35:34;101575.41;;;14.48;37.82
16190;BME280;41754;51.498;7.540;2023-05-03T09:38:03;101578.88;;;14.12;36.92
16190;BME280;41754;51.498;7.540;2023-05-03T09:40:31;101572.34;;;15.18;36.94
16190;BME280;41754;51.498;7.540;2023-05-03T09:43:09;101576.16;;;14.67;38.21
16190;BME280;41754;51.498;7.540;2023-05-03T09:45:39;101566.09;;;14.44;38.24
16190;BME280;41754;51.498;7.540;2023-05-03T09:48:07;101567.66;;;14.50;37.40
16190;BME280;41754;51.498;7.540;2023-05-03T09:50:35;101568.47;;;15.05;37.70
16190;BME280;41754;51.498;7.540;2023-05-03T09:53:05;101551.75;;;14.83;39.55
16190;BME280;41754;51.498;7.540;2023-05-03T09:55:35;101556.41;;;15.60;36.83
16190;BME280;41754;51.498;7.540;2023-05-03T09:58:03;101553.41;;;15.34;35.99
16190;BME280;41754;51.498;7.540;2023-05-03T10:00:36;101556.78;;;14.95;35.07
16190;BME280;41754;51.498;7.540;2023-05-03T10:03:07;101556.13;;;15.25;37.76
16190;BME280;41754;51.498;7.540;2023-05-03T10:05:42;101541.94;;;15.27;36.22
16190;BME280;41754;51.498;7.540;2023-05-03T10:08:29;101545.16;;;15.06;40.29
16190;BME280;41754;51.498;7.540;2023-05-03T10:11:01;101546.81;;;15.43;38.60
16190;BME280;41754;51.498;7.540;2023-05-03T10:13:30;101552.31;;;15.21;36.97
16190;BME280;41754;51.498;7.540;2023-05-03T10:16:04;101549.34;;;15.54;35.89
16190;BME280;41754;51.498;7.540;2023-05-03T10:18:33;101545.94;;;15.57;36.80
16190;BME280;41754;51.498;7.540;2023-05-03T10:21:08;101539.19;;;15.27;37.19
16190;BME280;41754;51.498;7.540;2023-05-03T10:24:10;101545.75;;;15.17;35.81
16190;BME280;41754;51.498;7.540;2023-05-03T10:26:40;101533.31;;;16.18;36.55
16190;BME280;41754;51.498;7.540;2023-05-03T10:32:28;101523.03;;;15.65;35.14
16190;BME280;41754;51.498;7.540;2023-05-03T10:34:56;101519.88;;;16.42;32.91
16190;BME280;41754;51.498;7.540;2023-05-03T10:37:29;101512.66;;;14.57;35.10
16190;BME280;41754;51.498;7.540;2023-05-03T10:40:09;101525.31;;;15.27;34.41
16190;BME280;41754;51.498;7.540;2023-05-03T10:42:39;101509.69;;;16.60;35.57
16190;BME280;41754;51.498;7.540;2023-05-03T10:45:19;101508.81;;;17.34;32.44
16190;BME280;41754;51.498;7.540;2023-05-03T10:48:16;101508.59;;;16.07;35.22
16190;BME280;41754;51.498;7.540;2023-05-03T10:50:46;101513.53;;;16.50;33.49
16190;BME280;41754;51.498;7.540;2023-05-03T10:53:33;101512.88;;;17.97;31.52
16190;BME280;41754;51.498;7.540;2023-05-03T10:56:04;101509.75;;;17.90;32.47
16190;BME280;41754;51.498;7.540;2023-05-03T10:58:37;101505.44;;;19.36;30.51
16190;BME280;41754;51.498;7.540;2023-05-03T11:01:09;101502.72;;;19.27;27.88
16190;BME280;41754;51.498;7.540;2023-05-03T11:03:43;101499.13;;;17.05;29.43
16190;BME280;41754;51.498;7.540;2023-05-03T11:06:30;101499.09;;;19.48;29.81
16190;BME280;41754;51.498;7.540;2023-05-03T11:08:59;101494.06;;;19.41;31.21
16190;BME280;41754;51.498;7.540;2023-05-03T11:11:28;101485.22;;;20.18;29.87
16190;BME280;41754;51.498;7.540;2023-05-03T11:13:57;101480.81;;;20.90;30.00
16190;BME280;41754;51.498;7.540;2023-05-03T11:16:25;101477.00;;;20.82;26.31
16190;BME280;41754;51.498;7.540;2023-05-03T11:18:54;101480.84;;;20.78;28.34
16190;BME280;41754;51.498;7.540;2023-05-03T11:21:22;101476.31;;;20.61;27.64
16190;BME280;41754;51.498;7.540;2023-05-03T11:23:50;101467.19;;;20.15;29.48
16190;BME280;41754;51.498;7.540;2023-05-03T11:26:18;101467.53;;;20.50;28.59
16190;BME280;41754;51.498;7.540;2023-05-03T11:28:53;101473.09;;;21.67;27.28
16190;BME280;41754;51.498;7.540;2023-05-03T11:31:21;101465.34;;;21.20;24.25
16190;BME280;41754;51.498;7.540;2023-05-03T11:33:49;101477.81;;;20.34;29.66
16190;BME280;41754;51.498;7.540;2023-05-03T11:36:17;101474.22;;;20.58;25.81
16190;BME280;41754;51.498;7.540;2023-05-03T11:38:45;101471.28;;;22.03;25.29
16190;BME280;41754;51.498;7.540;2023-05-03T11:41:15;101465.84;;;22.57;25.67
16190;BME280;41754;51.498;7.540;2023-05-03T11:43:45;101461.41;;;23.88;24.48
16190;BME280;41754;51.498;7.540;2023-05-03T11:46:26;101455.41;;;24.58;22.00
16190;BME280;41754;51.498;7.540;2023-05-03T11:48:55;101451.94;;;23.15;22.49
16190;BME280;41754;51.498;7.540;2023-05-03T11:51:24;101453.75;;;22.88;22.52
16190;BME280;41754;51.498;7.540;2023-05-03T11:53:52;101453.16;;;24.18;20.65
16190;BME280;41754;51.498;7.540;2023-05-03T11:56:21;101457.22;;;24.20;20.03
16190;BME280;41754;51.498;7.540;2023-05-03T11:58:53;101463.50;;;22.28;23.95
16190;BME280;41754;51.498;7.540;2023-05-03T12:01:25;101458.84;;;22.67;22.63
16190;BME280;41754;51.498;7.540;2023-05-03T12:03:56;101470.06;;;23.37;21.20
16190;BME280;41754;51.498;7.540;2023-05-03T12:06:25;101470.06;;;23.56;24.39
16190;BME280;41754;51.498;7.540;2023-05-03T12:08:54;101471.25;;;23.55;21.02
16190;BME280;41754;51.498;7.540;2023-05-03T12:11:23;101474.16;;;23.82;23.83
16190;BME280;41754;51.498;7.540;2023-05-03T12:13:57;101465.22;;;24.68;20.47
16190;BME280;41754;51.498;7.540;2023-05-03T12:16:27;101464.81;;;24.96;20.23
16190;BME280;41754;51.498;7.540;2023-05-03T12:19:22;101465.41;;;24.29;20.17
16190;BME280;41754;51.498;7.540;2023-05-03T12:21:51;101445.44;;;24.38;20.29
16190;BME280;41754;51.498;7.540;2023-05-03T12:24:39;101450.72;;;25.56;20.57
16190;BME280;41754;51.498;7.540;2023-05-03T12:27:10;101448.72;;;25.97;20.84
16190;BME280;41754;51.498;7.540;2023-05-03T12:29:40;101440.44;;;26.70;18.22
16190;BME280;41754;51.498;7.540;2023-05-03T12:32:09;101443.56;;;26.03;22.82
16190;BME280;41754;51.498;7.540;2023-05-03T12:34:38;101430.63;;;25.27;19.41
16190;BME280;41754;51.498;7.540;2023-05-03T12:37:07;101434.06;;;25.14;20.62
16190;BME280;41754;51.498;7.540;2023-05-03T12:39:37;101429.00;;;24.93;19.18
16190;BME280;41754;51.498;7.540;2023-05-03T12:42:06;101436.72;;;26.04;17.48
16190;BME280;41754;51.498;7.540;2023-05-03T12:44:38;101428.47;;;26.94;17.38
16190;BME280;41754;51.498;7.540;2023-05-03T12:47:11;101429.78;;;27.11;17.77
16190;BME280;41754;51.498;7.540;2023-05-03T12:49:52;101427.63;;;26.83;17.57
16190;BME280;41754;51.498;7.540;2023-05-03T12:52:25;101421.06;;;26.65;21.59
16190;BME280;41754;51.498;7.540;2023-05-03T12:54:56;101424.06;;;26.97;18.97
16190;BME280;41754;51.498;7.540;2023-05-03T12:57:29;101418.00;;;25.48;19.26
16190;BME280;41754;51.498;7.540;2023-05-03T13:00:03;101416.25;;;27.66;17.05
16190;BME280;41754;51.498;7.540;2023-05-03T13:02:41;101408.84;;;27.16;17.81
16190;BME280;41754;51.498;7.540;2023-05-03T13:05:11;101408.34;;;26.37;18.50
16190;BME280;41754;51.498;7.540;2023-05-03T13:08:00;101404.03;;;27.34;17.97
16190;BME280;41754;51.498;7.540;2023-05-03T13:10:35;101401.53;;;29.07;16.34
16190;BME280;41754;51.498;7.540;2023-05-03T13:13:04;101389.53;;;28.74;16.31
16190;BME280;41754;51.498;7.540;2023-05-03T13:15:34;101391.16;;;28.68;15.29